الصفحة الرئيسية
METAR-TAF:

METAR-TAF

مطار :

مطار رشت الدولي

رشت, إيران

دائرة عرض: 37-12N, خط طول: 049-38E, ارتفاع: -7 متر

مراقبة الطقس الحالي

تاريخ ووقت الإصدار 44 دقيقة قبل الساعة 03:00UTC
رياح هادئة
درجة الحرارة 25°درجة مئوية
الرطوبة 100%
ضغط 1014 hPa
الرؤية: 2000 متر
غيوم مفككة على ارتفاع 700 قدم
غيوم مفككة على ارتفاع 6000 قدم
غشاء,

METAR: OIGG 190300Z 00000KT 2000 BR BKN007 BKN060 25/25 Q1014

زمن: 08:14 (03:44 UTC)

توقعات

تاريخ ووقت الإصدار 4ساعات و 44 دقيقة قبل الساعة 23:00UTC
التوقعات صالحة من19 الساعة 00 UTC إلى 19 الساعة 09 UTC
ريح 6 عقدة من الشرق
الرؤية: 1500 متر
غيوم مفككة على ارتفاع 1000 قدم
غشاء
مؤقت
من 19 الساعة 00 UTC إلى 19 الساعة 03 UTC
الرؤية: 0700 متر
غيوم مفككة على ارتفاع 500 قدم
ضباب
أصبح
من 19 الساعة 05 UTC إلى 19 الساعة 07 UTC
ريح 10 عقدة من الشرق/الشمال الشرقي
غيوم قليلة على ارتفاع 2000 قدم

TAF: OIGG 182300Z 1900/1909 08006KT 1500 BR BKN010 TEMPO 1900/1903 0700 FG BKN005 BECMG 1905/1907 06010KT FEW020

أرصاد الطقس والتوقعات من أكثر من 4000 مطار (تقارير الطقس للمطار METAR والتنبؤ بالطقس بالمطارTAF).

المحطات المتاحة هي النقط الصفراء والحمراء على الخريطة.

حرك المؤشر فوق النقطة لمعرفة اسم المحطة.

ثم انقر لمعرفة أرصاد وتوقعات الطقس.

لتغيير الخارطة: اضغط على الأزرار الخضراء مع رمز الصليب الأسود للتكبير. على الزر الأخضر مع شرطة للتصغير، أو على الأسهم الخضراء للخرائط المجاورة.


METAR-TAF: